sensor_id;sensor_type;location;lat;lon;timestamp;P1;durP1;ratioP1;P2;durP2;ratioP2
54271;SDS011;40184;53.362;5.216;2023-03-01T00:01:23;46.67;;;22.38;;
54271;SDS011;40184;53.362;5.216;2023-03-01T00:03:51;30.67;;;16.83;;
54271;SDS011;40184;53.362;5.216;2023-03-01T00:06:17;19.95;;;13.15;;
54271;SDS011;40184;53.362;5.216;2023-03-01T00:08:44;36.88;;;20.27;;
54271;SDS011;40184;53.362;5.216;2023-03-01T00:11:12;43.00;;;21.70;;
54271;SDS011;40184;53.362;5.216;2023-03-01T00:13:39;28.27;;;17.25;;
54271;SDS011;40184;53.362;5.216;2023-03-01T00:16:07;30.00;;;17.98;;
54271;SDS011;40184;53.362;5.216;2023-03-01T00:18:34;20.90;;;13.43;;
54271;SDS011;40184;53.362;5.216;2023-03-01T00:21:00;19.40;;;13.55;;
54271;SDS011;40184;53.362;5.216;2023-03-01T00:23:26;15.93;;;12.18;;
54271;SDS011;40184;53.362;5.216;2023-03-01T00:25:52;14.93;;;11.82;;
54271;SDS011;40184;53.362;5.216;2023-03-01T00:28:18;16.33;;;11.63;;
54271;SDS011;40184;53.362;5.216;2023-03-01T00:30:44;19.50;;;12.75;;
54271;SDS011;40184;53.362;5.216;2023-03-01T00:33:10;20.92;;;12.20;;
54271;SDS011;40184;53.362;5.216;2023-03-01T00:35:36;16.40;;;12.35;;
54271;SDS011;40184;53.362;5.216;2023-03-01T00:38:02;18.02;;;11.65;;
54271;SDS011;40184;53.362;5.216;2023-03-01T00:40:29;12.32;;;10.20;;
54271;SDS011;40184;53.362;5.216;2023-03-01T00:42:56;18.23;;;10.88;;
54271;SDS011;40184;53.362;5.216;2023-03-01T00:45:22;14.07;;;10.80;;
54271;SDS011;40184;53.362;5.216;2023-03-01T00:47:48;14.57;;;10.55;;
54271;SDS011;40184;53.362;5.216;2023-03-01T00:50:15;16.33;;;11.38;;
54271;SDS011;40184;53.362;5.216;2023-03-01T00:52:41;12.82;;;9.88;;
54271;SDS011;40184;53.362;5.216;2023-03-01T00:55:07;14.52;;;10.02;;
54271;SDS011;40184;53.362;5.216;2023-03-01T00:57:33;13.80;;;11.18;;
54271;SDS011;40184;53.362;5.216;2023-03-01T00:59:59;13.15;;;9.85;;
54271;SDS011;40184;53.362;5.216;2023-03-01T01:02:25;10.95;;;9.20;;
54271;SDS011;40184;53.362;5.216;2023-03-01T01:04:51;14.82;;;9.45;;
54271;SDS011;40184;53.362;5.216;2023-03-01T01:07:17;11.57;;;8.75;;
54271;SDS011;40184;53.362;5.216;2023-03-01T01:09:42;12.57;;;9.07;;
54271;SDS011;40184;53.362;5.216;2023-03-01T01:12:08;9.93;;;8.93;;
54271;SDS011;40184;53.362;5.216;2023-03-01T01:14:34;15.95;;;10.88;;
54271;SDS011;40184;53.362;5.216;2023-03-01T01:17:00;13.93;;;10.07;;
54271;SDS011;40184;53.362;5.216;2023-03-01T01:19:26;11.55;;;9.75;;
54271;SDS011;40184;53.362;5.216;2023-03-01T01:21:52;17.92;;;11.18;;
54271;SDS011;40184;53.362;5.216;2023-03-01T01:24:18;14.15;;;9.95;;
54271;SDS011;40184;53.362;5.216;2023-03-01T01:26:44;11.38;;;8.20;;
54271;SDS011;40184;53.362;5.216;2023-03-01T01:29:10;9.00;;;7.97;;
54271;SDS011;40184;53.362;5.216;2023-03-01T01:31:37;13.20;;;9.10;;
54271;SDS011;40184;53.362;5.216;2023-03-01T01:34:05;15.75;;;8.23;;
54271;SDS011;40184;53.362;5.216;2023-03-01T01:36:32;13.15;;;7.90;;
54271;SDS011;40184;53.362;5.216;2023-03-01T01:38:58;11.45;;;8.45;;
54271;SDS011;40184;53.362;5.216;2023-03-01T01:41:26;14.88;;;8.27;;
54271;SDS011;40184;53.362;5.216;2023-03-01T01:46:42;15.80;;;11.05;;
54271;SDS011;40184;53.362;5.216;2023-03-01T01:52:25;20.73;;;11.65;;
54271;SDS011;40184;53.362;5.216;2023-03-01T01:55:07;15.82;;;10.27;;
54271;SDS011;40184;53.362;5.216;2023-03-01T01:57:46;12.60;;;8.40;;
54271;SDS011;40184;53.362;5.216;2023-03-01T02:00:16;18.20;;;10.95;;
54271;SDS011;40184;53.362;5.216;2023-03-01T02:02:44;17.48;;;10.45;;
54271;SDS011;40184;53.362;5.216;2023-03-01T02:05:16;9.82;;;8.68;;
54271;SDS011;40184;53.362;5.216;2023-03-01T02:08:02;13.52;;;8.63;;
54271;SDS011;40184;53.362;5.216;2023-03-01T02:10:28;7.50;;;6.53;;
54271;SDS011;40184;53.362;5.216;2023-03-01T02:12:58;10.77;;;7.47;;
54271;SDS011;40184;53.362;5.216;2023-03-01T02:15:24;13.52;;;8.48;;
54271;SDS011;40184;53.362;5.216;2023-03-01T02:17:51;13.68;;;8.20;;
54271;SDS011;40184;53.362;5.216;2023-03-01T02:23:18;10.40;;;8.02;;
54271;SDS011;40184;53.362;5.216;2023-03-01T02:28:23;9.18;;;7.32;;
54271;SDS011;40184;53.362;5.216;2023-03-01T02:31:00;15.47;;;8.03;;
54271;SDS011;40184;53.362;5.216;2023-03-01T02:33:45;55.65;;;29.80;;
54271;SDS011;40184;53.362;5.216;2023-03-01T02:36:20;39.03;;;21.02;;
54271;SDS011;40184;53.362;5.216;2023-03-01T02:38:49;50.25;;;30.17;;
54271;SDS011;40184;53.362;5.216;2023-03-01T02:41:19;42.42;;;25.58;;
54271;SDS011;40184;53.362;5.216;2023-03-01T02:43:46;30.15;;;18.83;;
54271;SDS011;40184;53.362;5.216;2023-03-01T02:48:44;10.32;;;8.20;;
54271;SDS011;40184;53.362;5.216;2023-03-01T02:51:18;10.68;;;8.40;;
54271;SDS011;40184;53.362;5.216;2023-03-01T02:54:17;13.18;;;8.05;;
54271;SDS011;40184;53.362;5.216;2023-03-01T02:56:49;7.22;;;6.38;;
54271;SDS011;40184;53.362;5.216;2023-03-01T02:59:18;9.35;;;6.70;;
54271;SDS011;40184;53.362;5.216;2023-03-01T03:01:47;12.38;;;7.88;;
54271;SDS011;40184;53.362;5.216;2023-03-01T03:04:14;11.38;;;7.38;;
54271;SDS011;40184;53.362;5.216;2023-03-01T03:06:46;12.57;;;7.00;;
54271;SDS011;40184;53.362;5.216;2023-03-01T03:09:13;17.08;;;10.60;;
54271;SDS011;40184;53.362;5.216;2023-03-01T03:11:39;10.10;;;7.80;;
54271;SDS011;40184;53.362;5.216;2023-03-01T03:14:06;11.35;;;8.43;;
54271;SDS011;40184;53.362;5.216;2023-03-01T03:16:47;11.65;;;8.63;;
54271;SDS011;40184;53.362;5.216;2023-03-01T03:19:14;10.43;;;7.10;;
54271;SDS011;40184;53.362;5.216;2023-03-01T03:21:41;11.63;;;8.57;;
54271;SDS011;40184;53.362;5.216;2023-03-01T03:24:07;11.75;;;9.13;;
54271;SDS011;40184;53.362;5.216;2023-03-01T03:26:33;10.35;;;8.40;;
54271;SDS011;40184;53.362;5.216;2023-03-01T03:28:59;12.52;;;8.20;;
54271;SDS011;40184;53.362;5.216;2023-03-01T03:31:25;8.68;;;6.38;;
54271;SDS011;40184;53.362;5.216;2023-03-01T03:33:51;11.93;;;7.32;;
54271;SDS011;40184;53.362;5.216;2023-03-01T03:36:17;10.00;;;6.95;;
54271;SDS011;40184;53.362;5.216;2023-03-01T03:38:44;8.35;;;6.25;;
54271;SDS011;40184;53.362;5.216;2023-03-01T03:41:11;11.52;;;7.03;;
54271;SDS011;40184;53.362;5.216;2023-03-01T03:43:38;9.27;;;6.97;;
54271;SDS011;40184;53.362;5.216;2023-03-01T03:46:06;11.20;;;6.30;;
54271;SDS011;40184;53.362;5.216;2023-03-01T03:48:36;10.90;;;5.82;;
54271;SDS011;40184;53.362;5.216;2023-03-01T03:51:03;12.10;;;5.80;;
54271;SDS011;40184;53.362;5.216;2023-03-01T03:53:32;8.68;;;4.38;;
54271;SDS011;40184;53.362;5.216;2023-03-01T03:55:58;9.32;;;5.05;;
54271;SDS011;40184;53.362;5.216;2023-03-01T03:58:24;6.72;;;3.25;;
54271;SDS011;40184;53.362;5.216;2023-03-01T04:00:54;5.60;;;3.17;;
54271;SDS011;40184;53.362;5.216;2023-03-01T04:03:21;6.85;;;3.97;;
54271;SDS011;40184;53.362;5.216;2023-03-01T04:05:48;7.90;;;5.00;;
54271;SDS011;40184;53.362;5.216;2023-03-01T04:08:19;7.93;;;5.88;;
54271;SDS011;40184;53.362;5.216;2023-03-01T04:10:46;9.60;;;4.55;;
54271;SDS011;40184;53.362;5.216;2023-03-01T04:13:15;6.35;;;4.22;;
54271;SDS011;40184;53.362;5.216;2023-03-01T04:15:44;6.00;;;3.85;;
54271;SDS011;40184;53.362;5.216;2023-03-01T04:18:18;5.30;;;3.63;;
54271;SDS011;40184;53.362;5.216;2023-03-01T04:20:45;5.05;;;2.67;;
54271;SDS011;40184;53.362;5.216;2023-03-01T04:23:18;13.73;;;3.53;;
54271;SDS011;40184;53.362;5.216;2023-03-01T04:25:47;3.70;;;2.00;;
54271;SDS011;40184;53.362;5.216;2023-03-01T04:28:19;6.45;;;1.75;;
54271;SDS011;40184;53.362;5.216;2023-03-01T04:30:53;3.10;;;1.70;;
54271;SDS011;40184;53.362;5.216;2023-03-01T04:33:21;3.10;;;1.25;;
54271;SDS011;40184;53.362;5.216;2023-03-01T04:35:47;5.65;;;1.38;;
54271;SDS011;40184;53.362;5.216;2023-03-01T04:38:16;6.82;;;1.30;;
54271;SDS011;40184;53.362;5.216;2023-03-01T04:40:44;4.60;;;1.85;;
54271;SDS011;40184;53.362;5.216;2023-03-01T04:43:10;4.93;;;1.63;;
54271;SDS011;40184;53.362;5.216;2023-03-01T04:45:38;4.38;;;1.70;;
54271;SDS011;40184;53.362;5.216;2023-03-01T04:48:04;10.32;;;1.80;;
54271;SDS011;40184;53.362;5.216;2023-03-01T04:50:30;9.57;;;2.97;;
54271;SDS011;40184;53.362;5.216;2023-03-01T04:52:56;12.93;;;4.50;;
54271;SDS011;40184;53.362;5.216;2023-03-01T04:55:27;7.10;;;4.88;;
54271;SDS011;40184;53.362;5.216;2023-03-01T04:57:54;13.13;;;5.20;;
54271;SDS011;40184;53.362;5.216;2023-03-01T05:00:20;8.27;;;4.72;;
54271;SDS011;40184;53.362;5.216;2023-03-01T05:02:47;8.00;;;5.00;;
54271;SDS011;40184;53.362;5.216;2023-03-01T05:05:21;9.53;;;6.13;;
54271;SDS011;40184;53.362;5.216;2023-03-01T05:07:50;7.57;;;5.50;;
54271;SDS011;40184;53.362;5.216;2023-03-01T05:10:17;11.32;;;6.38;;
54271;SDS011;40184;53.362;5.216;2023-03-01T05:12:43;8.95;;;4.55;;
54271;SDS011;40184;53.362;5.216;2023-03-01T05:15:08;10.10;;;4.03;;
54271;SDS011;40184;53.362;5.216;2023-03-01T05:17:34;7.90;;;4.43;;
54271;SDS011;40184;53.362;5.216;2023-03-01T05:20:00;5.10;;;4.47;;
54271;SDS011;40184;53.362;5.216;2023-03-01T05:22:28;12.05;;;5.30;;
54271;SDS011;40184;53.362;5.216;2023-03-01T05:24:54;8.95;;;2.80;;
54271;SDS011;40184;53.362;5.216;2023-03-01T05:27:20;5.63;;;2.72;;
54271;SDS011;40184;53.362;5.216;2023-03-01T05:29:47;3.35;;;1.80;;
54271;SDS011;40184;53.362;5.216;2023-03-01T05:32:13;4.53;;;1.23;;
54271;SDS011;40184;53.362;5.216;2023-03-01T05:34:40;6.32;;;1.45;;
54271;SDS011;40184;53.362;5.216;2023-03-01T05:37:06;5.80;;;1.95;;
54271;SDS011;40184;53.362;5.216;2023-03-01T05:39:33;3.45;;;1.30;;
54271;SDS011;40184;53.362;5.216;2023-03-01T05:42:00;5.32;;;1.42;;
54271;SDS011;40184;53.362;5.216;2023-03-01T05:44:27;5.32;;;1.15;;
54271;SDS011;40184;53.362;5.216;2023-03-01T05:46:53;5.82;;;1.35;;
54271;SDS011;40184;53.362;5.216;2023-03-01T05:49:20;4.50;;;1.20;;
54271;SDS011;40184;53.362;5.216;2023-03-01T05:51:49;2.95;;;1.30;;
54271;SDS011;40184;53.362;5.216;2023-03-01T05:54:17;5.28;;;1.38;;
54271;SDS011;40184;53.362;5.216;2023-03-01T05:56:43;3.13;;;1.25;;
54271;SDS011;40184;53.362;5.216;2023-03-01T05:59:10;6.82;;;1.77;;
54271;SDS011;40184;53.362;5.216;2023-03-01T06:01:36;7.00;;;1.42;;
54271;SDS011;40184;53.362;5.216;2023-03-01T06:04:03;4.32;;;0.95;;
54271;SDS011;40184;53.362;5.216;2023-03-01T06:06:29;6.65;;;1.60;;
54271;SDS011;40184;53.362;5.216;2023-03-01T06:08:58;5.70;;;1.48;;
54271;SDS011;40184;53.362;5.216;2023-03-01T06:11:24;8.85;;;1.30;;
54271;SDS011;40184;53.362;5.216;2023-03-01T06:13:49;7.97;;;2.30;;
54271;SDS011;40184;53.362;5.216;2023-03-01T06:16:15;9.48;;;2.08;;
54271;SDS011;40184;53.362;5.216;2023-03-01T06:18:41;4.10;;;1.27;;
54271;SDS011;40184;53.362;5.216;2023-03-01T06:21:07;4.07;;;1.77;;
54271;SDS011;40184;53.362;5.216;2023-03-01T06:23:34;2.97;;;1.30;;
54271;SDS011;40184;53.362;5.216;2023-03-01T06:26:00;5.82;;;1.50;;
54271;SDS011;40184;53.362;5.216;2023-03-01T06:28:30;4.28;;;1.60;;
54271;SDS011;40184;53.362;5.216;2023-03-01T06:30:56;6.38;;;1.60;;
54271;SDS011;40184;53.362;5.216;2023-03-01T06:33:22;6.38;;;1.13;;
54271;SDS011;40184;53.362;5.216;2023-03-01T06:35:49;4.85;;;1.83;;
54271;SDS011;40184;53.362;5.216;2023-03-01T06:38:15;5.25;;;1.77;;
54271;SDS011;40184;53.362;5.216;2023-03-01T06:40:43;7.43;;;1.30;;
54271;SDS011;40184;53.362;5.216;2023-03-01T06:43:10;8.88;;;1.42;;
54271;SDS011;40184;53.362;5.216;2023-03-01T06:45:36;8.32;;;1.23;;
54271;SDS011;40184;53.362;5.216;2023-03-01T06:48:05;2.42;;;0.60;;
54271;SDS011;40184;53.362;5.216;2023-03-01T06:50:31;4.90;;;1.42;;
54271;SDS011;40184;53.362;5.216;2023-03-01T06:52:58;6.03;;;1.17;;
54271;SDS011;40184;53.362;5.216;2023-03-01T06:55:24;5.30;;;0.90;;
54271;SDS011;40184;53.362;5.216;2023-03-01T06:57:54;2.60;;;1.02;;
54271;SDS011;40184;53.362;5.216;2023-03-01T07:00:21;4.13;;;0.95;;
54271;SDS011;40184;53.362;5.216;2023-03-01T07:02:47;5.50;;;0.98;;
54271;SDS011;40184;53.362;5.216;2023-03-01T07:05:13;5.45;;;1.02;;
54271;SDS011;40184;53.362;5.216;2023-03-01T07:07:39;7.93;;;2.58;;
54271;SDS011;40184;53.362;5.216;2023-03-01T07:10:04;8.55;;;1.15;;
54271;SDS011;40184;53.362;5.216;2023-03-01T07:12:31;6.75;;;1.38;;
54271;SDS011;40184;53.362;5.216;2023-03-01T07:14:57;4.13;;;1.30;;
54271;SDS011;40184;53.362;5.216;2023-03-01T07:17:22;4.82;;;1.65;;
54271;SDS011;40184;53.362;5.216;2023-03-01T07:19:48;4.00;;;1.40;;
54271;SDS011;40184;53.362;5.216;2023-03-01T07:22:14;9.98;;;1.70;;
54271;SDS011;40184;53.362;5.216;2023-03-01T07:24:40;3.75;;;1.20;;
54271;SDS011;40184;53.362;5.216;2023-03-01T07:27:06;5.55;;;1.50;;
54271;SDS011;40184;53.362;5.216;2023-03-01T07:29:32;7.00;;;1.48;;
54271;SDS011;40184;53.362;5.216;2023-03-01T07:31:58;5.25;;;1.13;;
54271;SDS011;40184;53.362;5.216;2023-03-01T07:34:24;4.57;;;1.63;;
54271;SDS011;40184;53.362;5.216;2023-03-01T07:36:49;8.70;;;1.48;;
54271;SDS011;40184;53.362;5.216;2023-03-01T07:39:15;10.10;;;1.45;;
54271;SDS011;40184;53.362;5.216;2023-03-01T07:41:41;6.25;;;1.65;;
54271;SDS011;40184;53.362;5.216;2023-03-01T07:44:06;13.82;;;1.40;;
54271;SDS011;40184;53.362;5.216;2023-03-01T07:46:32;6.50;;;1.33;;
54271;SDS011;40184;53.362;5.216;2023-03-01T07:48:58;5.43;;;1.45;;
54271;SDS011;40184;53.362;5.216;2023-03-01T07:51:23;6.50;;;1.80;;
54271;SDS011;40184;53.362;5.216;2023-03-01T07:53:49;6.63;;;2.15;;
54271;SDS011;40184;53.362;5.216;2023-03-01T07:56:15;4.60;;;1.38;;
54271;SDS011;40184;53.362;5.216;2023-03-01T07:58:43;9.73;;;1.63;;
54271;SDS011;40184;53.362;5.216;2023-03-01T08:01:11;7.72;;;1.38;;
54271;SDS011;40184;53.362;5.216;2023-03-01T08:03:38;2.80;;;1.10;;
54271;SDS011;40184;53.362;5.216;2023-03-01T08:06:05;2.90;;;1.10;;
54271;SDS011;40184;53.362;5.216;2023-03-01T08:08:32;5.40;;;2.10;;
54271;SDS011;40184;53.362;5.216;2023-03-01T08:10:59;5.18;;;1.80;;
54271;SDS011;40184;53.362;5.216;2023-03-01T08:13:26;2.22;;;1.10;;
54271;SDS011;40184;53.362;5.216;2023-03-01T08:15:52;2.50;;;1.02;;
54271;SDS011;40184;53.362;5.216;2023-03-01T08:18:18;3.83;;;1.10;;
54271;SDS011;40184;53.362;5.216;2023-03-01T08:20:45;4.03;;;1.30;;
54271;SDS011;40184;53.362;5.216;2023-03-01T08:23:11;8.90;;;3.80;;
54271;SDS011;40184;53.362;5.216;2023-03-01T08:25:37;9.25;;;2.88;;
54271;SDS011;40184;53.362;5.216;2023-03-01T08:28:03;10.50;;;1.88;;
54271;SDS011;40184;53.362;5.216;2023-03-01T08:30:29;4.88;;;2.03;;
54271;SDS011;40184;53.362;5.216;2023-03-01T08:32:55;9.20;;;2.10;;
54271;SDS011;40184;53.362;5.216;2023-03-01T08:35:21;5.75;;;2.17;;
54271;SDS011;40184;53.362;5.216;2023-03-01T08:37:47;5.75;;;1.40;;
54271;SDS011;40184;53.362;5.216;2023-03-01T08:40:12;5.57;;;2.17;;
54271;SDS011;40184;53.362;5.216;2023-03-01T08:42:39;4.50;;;1.88;;
54271;SDS011;40184;53.362;5.216;2023-03-01T08:45:09;4.53;;;2.08;;
54271;SDS011;40184;53.362;5.216;2023-03-01T08:47:35;8.10;;;2.72;;
54271;SDS011;40184;53.362;5.216;2023-03-01T08:50:02;9.40;;;2.53;;
54271;SDS011;40184;53.362;5.216;2023-03-01T08:52:28;8.40;;;2.50;;
54271;SDS011;40184;53.362;5.216;2023-03-01T08:54:55;9.95;;;2.47;;
54271;SDS011;40184;53.362;5.216;2023-03-01T08:57:21;9.80;;;1.88;;
54271;SDS011;40184;53.362;5.216;2023-03-01T08:59:47;11.07;;;2.40;;
54271;SDS011;40184;53.362;5.216;2023-03-01T09:02:14;7.45;;;1.48;;
54271;SDS011;40184;53.362;5.216;2023-03-01T09:04:41;7.70;;;2.20;;
54271;SDS011;40184;53.362;5.216;2023-03-01T09:07:07;8.15;;;1.90;;
54271;SDS011;40184;53.362;5.216;2023-03-01T09:09:33;4.88;;;1.65;;
54271;SDS011;40184;53.362;5.216;2023-03-01T09:11:59;6.28;;;3.40;;
54271;SDS011;40184;53.362;5.216;2023-03-01T09:14:25;11.52;;;6.18;;
54271;SDS011;40184;53.362;5.216;2023-03-01T09:16:51;11.32;;;6.07;;
54271;SDS011;40184;53.362;5.216;2023-03-01T09:19:17;9.20;;;6.28;;
54271;SDS011;40184;53.362;5.216;2023-03-01T09:21:42;10.57;;;7.75;;
54271;SDS011;40184;53.362;5.216;2023-03-01T09:24:17;10.75;;;8.00;;
54271;SDS011;40184;53.362;5.216;2023-03-01T09:26:44;9.27;;;7.18;;
54271;SDS011;40184;53.362;5.216;2023-03-01T09:29:11;11.27;;;7.18;;
54271;SDS011;40184;53.362;5.216;2023-03-01T09:31:37;12.50;;;7.43;;
54271;SDS011;40184;53.362;5.216;2023-03-01T09:34:03;8.20;;;6.70;;
54271;SDS011;40184;53.362;5.216;2023-03-01T09:36:29;10.57;;;7.38;;
54271;SDS011;40184;53.362;5.216;2023-03-01T09:38:55;13.60;;;9.07;;
54271;SDS011;40184;53.362;5.216;2023-03-01T09:44:01;12.48;;;9.55;;
54271;SDS011;40184;53.362;5.216;2023-03-01T09:46:37;14.23;;;8.82;;
54271;SDS011;40184;53.362;5.216;2023-03-01T09:49:12;10.40;;;9.30;;
54271;SDS011;40184;53.362;5.216;2023-03-01T09:51:48;14.30;;;8.68;;
54271;SDS011;40184;53.362;5.216;2023-03-01T10:02:47;12.95;;;11.07;;
54271;SDS011;40184;53.362;5.216;2023-03-01T10:05:34;11.88;;;10.55;;
54271;SDS011;40184;53.362;5.216;2023-03-01T10:10:50;10.57;;;8.05;;
54271;SDS011;40184;53.362;5.216;2023-03-01T10:13:29;7.88;;;6.78;;
54271;SDS011;40184;53.362;5.216;2023-03-01T10:16:15;7.28;;;6.15;;
54271;SDS011;40184;53.362;5.216;2023-03-01T10:18:46;8.32;;;7.35;;
54271;SDS011;40184;53.362;5.216;2023-03-01T10:21:20;11.40;;;6.32;;
54271;SDS011;40184;53.362;5.216;2023-03-01T10:23:46;13.18;;;7.32;;
54271;SDS011;40184;53.362;5.216;2023-03-01T10:26:21;9.80;;;7.13;;
54271;SDS011;40184;53.362;5.216;2023-03-01T10:29:04;12.40;;;7.07;;
54271;SDS011;40184;53.362;5.216;2023-03-01T10:34:09;10.05;;;7.82;;
54271;SDS011;40184;53.362;5.216;2023-03-01T10:36:38;9.60;;;5.63;;
54271;SDS011;40184;53.362;5.216;2023-03-01T10:39:11;7.32;;;5.13;;
54271;SDS011;40184;53.362;5.216;2023-03-01T10:42:45;10.35;;;5.30;;
54271;SDS011;40184;53.362;5.216;2023-03-01T10:44:57;6.43;;;5.15;;
54271;SDS011;40184;53.362;5.216;2023-03-01T10:47:38;9.77;;;4.97;;
54271;SDS011;40184;53.362;5.216;2023-03-01T10:50:05;5.13;;;4.20;;
54271;SDS011;40184;53.362;5.216;2023-03-01T10:52:42;7.78;;;4.43;;
54271;SDS011;40184;53.362;5.216;2023-03-01T10:58:34;5.88;;;3.00;;
54271;SDS011;40184;53.362;5.216;2023-03-01T11:03:23;6.28;;;2.65;;
54271;SDS011;40184;53.362;5.216;2023-03-01T11:08:33;6.05;;;3.55;;
54271;SDS011;40184;53.362;5.216;2023-03-01T11:13:38;4.60;;;3.20;;
54271;SDS011;40184;53.362;5.216;2023-03-01T11:16:22;9.48;;;3.75;;
54271;SDS011;40184;53.362;5.216;2023-03-01T11:21:41;4.22;;;3.30;;
54271;SDS011;40184;53.362;5.216;2023-03-01T11:24:29;5.50;;;3.33;;
54271;SDS011;40184;53.362;5.216;2023-03-01T11:27:04;3.08;;;2.40;;
54271;SDS011;40184;53.362;5.216;2023-03-01T11:29:55;5.20;;;3.42;;
54271;SDS011;40184;53.362;5.216;2023-03-01T11:32:42;7.45;;;3.22;;
54271;SDS011;40184;53.362;5.216;2023-03-01T11:35:20;3.13;;;2.60;;
54271;SDS011;40184;53.362;5.216;2023-03-01T11:45:17;4.17;;;3.27;;
54271;SDS011;40184;53.362;5.216;2023-03-01T11:50:42;6.13;;;3.60;;
54271;SDS011;40184;53.362;5.216;2023-03-01T11:56:02;5.22;;;3.10;;
54271;SDS011;40184;53.362;5.216;2023-03-01T11:58:37;4.32;;;3.13;;
54271;SDS011;40184;53.362;5.216;2023-03-01T12:14:44;2.88;;;2.65;;
54271;SDS011;40184;53.362;5.216;2023-03-01T12:33:41;6.95;;;3.90;;
54271;SDS011;40184;53.362;5.216;2023-03-01T12:36:38;7.65;;;3.28;;
54271;SDS011;40184;53.362;5.216;2023-03-01T12:49:41;5.88;;;3.33;;
54271;SDS011;40184;53.362;5.216;2023-03-01T12:52:14;3.20;;;2.20;;
54271;SDS011;40184;53.362;5.216;2023-03-01T12:54:47;7.03;;;2.08;;
54271;SDS011;40184;53.362;5.216;2023-03-01T12:57:33;3.53;;;1.75;;
54271;SDS011;40184;53.362;5.216;2023-03-01T13:10:50;3.55;;;1.88;;
54271;SDS011;40184;53.362;5.216;2023-03-01T13:13:24;2.90;;;1.90;;
54271;SDS011;40184;53.362;5.216;2023-03-01T13:15:51;3.00;;;2.10;;
54271;SDS011;40184;53.362;5.216;2023-03-01T13:20:48;5.95;;;1.80;;
54271;SDS011;40184;53.362;5.216;2023-03-01T13:26:01;3.20;;;2.33;;
54271;SDS011;40184;53.362;5.216;2023-03-01T13:31:03;5.70;;;2.60;;
54271;SDS011;40184;53.362;5.216;2023-03-01T13:35:59;6.53;;;3.78;;
54271;SDS011;40184;53.362;5.216;2023-03-01T13:47:36;6.80;;;4.47;;
54271;SDS011;40184;53.362;5.216;2023-03-01T13:49:51;4.00;;;3.60;;
54271;SDS011;40184;53.362;5.216;2023-03-01T13:52:38;7.60;;;4.45;;
54271;SDS011;40184;53.362;5.216;2023-03-01T13:57:39;6.00;;;4.53;;
54271;SDS011;40184;53.362;5.216;2023-03-01T14:05:43;4.95;;;3.45;;
54271;SDS011;40184;53.362;5.216;2023-03-01T14:08:24;5.20;;;3.90;;
54271;SDS011;40184;53.362;5.216;2023-03-01T14:19:15;6.25;;;5.43;;
54271;SDS011;40184;53.362;5.216;2023-03-01T14:21:45;8.93;;;7.18;;
54271;SDS011;40184;53.362;5.216;2023-03-01T14:24:21;9.05;;;7.35;;
54271;SDS011;40184;53.362;5.216;2023-03-01T14:26:48;14.93;;;12.30;;
54271;SDS011;40184;53.362;5.216;2023-03-01T14:29:24;9.25;;;8.13;;
54271;SDS011;40184;53.362;5.216;2023-03-01T14:32:11;9.20;;;7.45;;
54271;SDS011;40184;53.362;5.216;2023-03-01T14:34:46;10.75;;;9.60;;
54271;SDS011;40184;53.362;5.216;2023-03-01T14:37:22;12.18;;;9.25;;
54271;SDS011;40184;53.362;5.216;2023-03-01T14:39:51;12.40;;;11.13;;
54271;SDS011;40184;53.362;5.216;2023-03-01T14:42:18;8.20;;;7.40;;
54271;SDS011;40184;53.362;5.216;2023-03-01T14:44:48;10.55;;;9.45;;
54271;SDS011;40184;53.362;5.216;2023-03-01T14:47:28;13.52;;;12.13;;
54271;SDS011;40184;53.362;5.216;2023-03-01T14:50:03;9.25;;;8.35;;
54271;SDS011;40184;53.362;5.216;2023-03-01T14:52:36;11.15;;;9.90;;
54271;SDS011;40184;53.362;5.216;2023-03-01T14:55:05;16.17;;;13.32;;
54271;SDS011;40184;53.362;5.216;2023-03-01T14:57:38;14.10;;;9.15;;
54271;SDS011;40184;53.362;5.216;2023-03-01T15:00:10;14.80;;;10.07;;
54271;SDS011;40184;53.362;5.216;2023-03-01T15:02:45;19.00;;;14.98;;
54271;SDS011;40184;53.362;5.216;2023-03-01T15:05:13;10.63;;;9.55;;
54271;SDS011;40184;53.362;5.216;2023-03-01T15:07:41;17.00;;;10.13;;
54271;SDS011;40184;53.362;5.216;2023-03-01T15:10:27;12.07;;;10.45;;
54271;SDS011;40184;53.362;5.216;2023-03-01T15:12:54;14.13;;;9.13;;
54271;SDS011;40184;53.362;5.216;2023-03-01T15:18:49;15.27;;;8.65;;
54271;SDS011;40184;53.362;5.216;2023-03-01T15:20:53;8.65;;;6.57;;
54271;SDS011;40184;53.362;5.216;2023-03-01T15:25:55;16.20;;;8.18;;
54271;SDS011;40184;53.362;5.216;2023-03-01T15:28:29;15.90;;;8.98;;
54271;SDS011;40184;53.362;5.216;2023-03-01T15:31:00;21.20;;;9.05;;
54271;SDS011;40184;53.362;5.216;2023-03-01T15:33:42;15.18;;;5.85;;
54271;SDS011;40184;53.362;5.216;2023-03-01T15:39:02;11.48;;;7.18;;
54271;SDS011;40184;53.362;5.216;2023-03-01T15:41:38;11.73;;;6.80;;
54271;SDS011;40184;53.362;5.216;2023-03-01T15:46:52;16.15;;;6.90;;
54271;SDS011;40184;53.362;5.216;2023-03-01T15:49:33;12.77;;;6.53;;
54271;SDS011;40184;53.362;5.216;2023-03-01T15:52:00;10.52;;;6.88;;
54271;SDS011;40184;53.362;5.216;2023-03-01T15:54:27;19.10;;;7.68;;
54271;SDS011;40184;53.362;5.216;2023-03-01T15:56:53;12.98;;;7.20;;
54271;SDS011;40184;53.362;5.216;2023-03-01T15:59:19;11.68;;;7.50;;
54271;SDS011;40184;53.362;5.216;2023-03-01T16:01:46;15.15;;;7.85;;
54271;SDS011;40184;53.362;5.216;2023-03-01T16:04:14;13.98;;;7.68;;
54271;SDS011;40184;53.362;5.216;2023-03-01T16:06:52;10.35;;;7.57;;
54271;SDS011;40184;53.362;5.216;2023-03-01T16:09:25;10.65;;;7.80;;
54271;SDS011;40184;53.362;5.216;2023-03-01T16:11:51;13.93;;;7.95;;
54271;SDS011;40184;53.362;5.216;2023-03-01T16:14:18;12.68;;;8.25;;
54271;SDS011;40184;53.362;5.216;2023-03-01T16:16:44;14.65;;;8.63;;
54271;SDS011;40184;53.362;5.216;2023-03-01T16:19:11;13.80;;;7.55;;
54271;SDS011;40184;53.362;5.216;2023-03-01T16:21:37;8.82;;;7.28;;
54271;SDS011;40184;53.362;5.216;2023-03-01T16:24:03;15.90;;;7.03;;
54271;SDS011;40184;53.362;5.216;2023-03-01T16:26:29;16.50;;;7.85;;
54271;SDS011;40184;53.362;5.216;2023-03-01T16:28:55;12.52;;;7.70;;
54271;SDS011;40184;53.362;5.216;2023-03-01T16:31:22;14.98;;;7.38;;
54271;SDS011;40184;53.362;5.216;2023-03-01T16:33:49;14.27;;;6.82;;
54271;SDS011;40184;53.362;5.216;2023-03-01T16:36:17;13.32;;;6.80;;
54271;SDS011;40184;53.362;5.216;2023-03-01T16:38:44;9.00;;;5.65;;
54271;SDS011;40184;53.362;5.216;2023-03-01T16:41:13;10.02;;;5.97;;
54271;SDS011;40184;53.362;5.216;2023-03-01T16:43:40;12.55;;;6.72;;
54271;SDS011;40184;53.362;5.216;2023-03-01T16:46:13;12.48;;;7.32;;
54271;SDS011;40184;53.362;5.216;2023-03-01T16:48:45;10.73;;;6.22;;
54271;SDS011;40184;53.362;5.216;2023-03-01T16:51:11;10.00;;;7.05;;
54271;SDS011;40184;53.362;5.216;2023-03-01T16:53:37;14.63;;;7.38;;
54271;SDS011;40184;53.362;5.216;2023-03-01T16:56:05;11.75;;;7.50;;
54271;SDS011;40184;53.362;5.216;2023-03-01T16:58:33;8.95;;;6.15;;
54271;SDS011;40184;53.362;5.216;2023-03-01T17:01:09;8.65;;;6.32;;
54271;SDS011;40184;53.362;5.216;2023-03-01T17:03:37;12.85;;;8.02;;
54271;SDS011;40184;53.362;5.216;2023-03-01T17:06:04;11.98;;;7.88;;
54271;SDS011;40184;53.362;5.216;2023-03-01T17:08:32;12.70;;;7.22;;
54271;SDS011;40184;53.362;5.216;2023-03-01T17:11:05;13.63;;;6.75;;
54271;SDS011;40184;53.362;5.216;2023-03-01T17:13:35;16.38;;;8.02;;
54271;SDS011;40184;53.362;5.216;2023-03-01T17:16:02;15.10;;;8.63;;
54271;SDS011;40184;53.362;5.216;2023-03-01T17:18:35;15.57;;;8.48;;
54271;SDS011;40184;53.362;5.216;2023-03-01T17:21:02;18.83;;;9.15;;
54271;SDS011;40184;53.362;5.216;2023-03-01T17:23:29;13.15;;;9.07;;
54271;SDS011;40184;53.362;5.216;2023-03-01T17:25:55;14.98;;;9.43;;
54271;SDS011;40184;53.362;5.216;2023-03-01T17:28:22;17.38;;;9.10;;